sensor_id;sensor_type;location;lat;lon;timestamp;pressure;altitude;pressure_sealevel;temperature
61390;BMP280;47260;48.274;19.814;2023-05-10T00:00:59;99686.81;;;7.00
61390;BMP280;47260;48.274;19.814;2023-05-10T00:02:31;99686.84;;;6.91
61390;BMP280;47260;48.274;19.814;2023-05-10T00:04:02;99679.78;;;6.79
61390;BMP280;47260;48.274;19.814;2023-05-10T00:05:33;99676.56;;;6.75
61390;BMP280;47260;48.274;19.814;2023-05-10T00:07:07;99680.88;;;6.72
61390;BMP280;47260;48.274;19.814;2023-05-10T00:08:38;99686.38;;;6.69
61390;BMP280;47260;48.274;19.814;2023-05-10T00:10:10;99684.28;;;6.73
61390;BMP280;47260;48.274;19.814;2023-05-10T00:11:42;99686.50;;;6.74
61390;BMP280;47260;48.274;19.814;2023-05-10T00:13:14;99681.44;;;6.76
61390;BMP280;47260;48.274;19.814;2023-05-10T00:14:46;99675.88;;;6.65
61390;BMP280;47260;48.274;19.814;2023-05-10T00:16:18;99677.53;;;6.63
61390;BMP280;47260;48.274;19.814;2023-05-10T00:17:50;99679.94;;;6.52
61390;BMP280;47260;48.274;19.814;2023-05-10T00:19:21;99676.69;;;6.47
61390;BMP280;47260;48.274;19.814;2023-05-10T00:20:53;99673.28;;;6.47
61390;BMP280;47260;48.274;19.814;2023-05-10T00:22:25;99677.00;;;6.50
61390;BMP280;47260;48.274;19.814;2023-05-10T00:23:57;99670.63;;;6.47
61390;BMP280;47260;48.274;19.814;2023-05-10T00:25:29;99669.72;;;6.50
61390;BMP280;47260;48.274;19.814;2023-05-10T00:27:01;99662.72;;;6.53
61390;BMP280;47260;48.274;19.814;2023-05-10T00:28:34;99662.00;;;6.52
61390;BMP280;47260;48.274;19.814;2023-05-10T00:30:06;99662.47;;;6.51
61390;BMP280;47260;48.274;19.814;2023-05-10T00:31:39;99667.50;;;6.48
61390;BMP280;47260;48.274;19.814;2023-05-10T00:33:11;99659.81;;;6.51
61390;BMP280;47260;48.274;19.814;2023-05-10T00:34:42;99661.59;;;6.44
61390;BMP280;47260;48.274;19.814;2023-05-10T00:36:14;99657.03;;;6.36
61390;BMP280;47260;48.274;19.814;2023-05-10T00:37:47;99652.47;;;6.18
61390;BMP280;47260;48.274;19.814;2023-05-10T00:39:19;99648.50;;;6.14
61390;BMP280;47260;48.274;19.814;2023-05-10T00:40:50;99649.69;;;6.13
61390;BMP280;47260;48.274;19.814;2023-05-10T00:42:29;99646.03;;;6.10
61390;BMP280;47260;48.274;19.814;2023-05-10T00:44:01;99645.41;;;6.15
61390;BMP280;47260;48.274;19.814;2023-05-10T00:45:33;99651.44;;;6.16
61390;BMP280;47260;48.274;19.814;2023-05-10T00:47:07;99651.16;;;6.23
61390;BMP280;47260;48.274;19.814;2023-05-10T00:48:39;99641.22;;;6.23
61390;BMP280;47260;48.274;19.814;2023-05-10T00:50:11;99656.31;;;6.26
61390;BMP280;47260;48.274;19.814;2023-05-10T00:51:42;99653.09;;;6.22
61390;BMP280;47260;48.274;19.814;2023-05-10T00:53:16;99649.25;;;6.14
61390;BMP280;47260;48.274;19.814;2023-05-10T00:54:48;99650.91;;;6.12
61390;BMP280;47260;48.274;19.814;2023-05-10T00:56:21;99653.41;;;6.15
61390;BMP280;47260;48.274;19.814;2023-05-10T00:57:54;99663.31;;;6.15
61390;BMP280;47260;48.274;19.814;2023-05-10T00:59:27;99661.06;;;6.13
61390;BMP280;47260;48.274;19.814;2023-05-10T01:01:00;99668.53;;;6.09
61390;BMP280;47260;48.274;19.814;2023-05-10T01:02:33;99662.00;;;6.01
61390;BMP280;47260;48.274;19.814;2023-05-10T01:04:05;99656.25;;;5.94
61390;BMP280;47260;48.274;19.814;2023-05-10T01:05:37;99655.22;;;5.91
61390;BMP280;47260;48.274;19.814;2023-05-10T01:07:09;99658.81;;;5.79
61390;BMP280;47260;48.274;19.814;2023-05-10T01:08:41;99658.63;;;5.74
61390;BMP280;47260;48.274;19.814;2023-05-10T01:10:13;99658.22;;;5.66
61390;BMP280;47260;48.274;19.814;2023-05-10T01:11:44;99652.88;;;5.66
61390;BMP280;47260;48.274;19.814;2023-05-10T01:13:18;99653.06;;;5.62
61390;BMP280;47260;48.274;19.814;2023-05-10T01:14:54;99650.09;;;5.60
61390;BMP280;47260;48.274;19.814;2023-05-10T01:16:27;99656.13;;;5.61
61390;BMP280;47260;48.274;19.814;2023-05-10T01:18:00;99656.13;;;5.61
61390;BMP280;47260;48.274;19.814;2023-05-10T01:19:34;99652.59;;;5.64
61390;BMP280;47260;48.274;19.814;2023-05-10T01:21:16;99652.59;;;5.64
61390;BMP280;47260;48.274;19.814;2023-05-10T01:23:13;99656.28;;;5.66
61390;BMP280;47260;48.274;19.814;2023-05-10T01:27:19;99655.56;;;5.75
61390;BMP280;47260;48.274;19.814;2023-05-10T01:29:04;99652.31;;;5.80
61390;BMP280;47260;48.274;19.814;2023-05-10T01:31:03;99655.25;;;5.82
61390;BMP280;47260;48.274;19.814;2023-05-10T01:32:43;99658.03;;;5.88
61390;BMP280;47260;48.274;19.814;2023-05-10T01:34:21;99652.72;;;5.88
61390;BMP280;47260;48.274;19.814;2023-05-10T01:35:58;99651.84;;;5.91
61390;BMP280;47260;48.274;19.814;2023-05-10T01:37:41;99655.84;;;5.95
61390;BMP280;47260;48.274;19.814;2023-05-10T01:39:18;99656.13;;;5.97
61390;BMP280;47260;48.274;19.814;2023-05-10T01:40:57;99658.16;;;6.02
61390;BMP280;47260;48.274;19.814;2023-05-10T01:42:38;99658.16;;;6.02
61390;BMP280;47260;48.274;19.814;2023-05-10T01:44:17;99659.03;;;5.99
61390;BMP280;47260;48.274;19.814;2023-05-10T01:45:57;99657.28;;;5.96
61390;BMP280;47260;48.274;19.814;2023-05-10T01:47:35;99653.72;;;5.99
61390;BMP280;47260;48.274;19.814;2023-05-10T01:49:18;99654.94;;;5.98
61390;BMP280;47260;48.274;19.814;2023-05-10T01:50:52;99652.72;;;5.97
61390;BMP280;47260;48.274;19.814;2023-05-10T01:52:26;99652.56;;;5.91
61390;BMP280;47260;48.274;19.814;2023-05-10T01:54:03;99649.31;;;5.87
61390;BMP280;47260;48.274;19.814;2023-05-10T01:55:41;99653.03;;;5.81
61390;BMP280;47260;48.274;19.814;2023-05-10T01:57:16;99646.22;;;5.80
61390;BMP280;47260;48.274;19.814;2023-05-10T01:58:51;99654.22;;;5.80
61390;BMP280;47260;48.274;19.814;2023-05-10T02:00:25;99646.97;;;5.80
61390;BMP280;47260;48.274;19.814;2023-05-10T02:01:58;99644.72;;;5.79
61390;BMP280;47260;48.274;19.814;2023-05-10T02:03:32;99651.56;;;5.80
61390;BMP280;47260;48.274;19.814;2023-05-10T02:05:06;99648.44;;;5.81
61390;BMP280;47260;48.274;19.814;2023-05-10T02:06:38;99642.06;;;5.79
61390;BMP280;47260;48.274;19.814;2023-05-10T02:08:11;99641.19;;;5.73
61390;BMP280;47260;48.274;19.814;2023-05-10T02:09:44;99642.38;;;5.72
61390;BMP280;47260;48.274;19.814;2023-05-10T02:11:18;99631.59;;;5.57
61390;BMP280;47260;48.274;19.814;2023-05-10T02:12:53;99635.44;;;5.47
61390;BMP280;47260;48.274;19.814;2023-05-10T02:14:25;99636.75;;;5.33
61390;BMP280;47260;48.274;19.814;2023-05-10T02:15:57;99623.03;;;5.35
61390;BMP280;47260;48.274;19.814;2023-05-10T02:17:32;99627.00;;;5.39
61390;BMP280;47260;48.274;19.814;2023-05-10T02:19:04;99630.13;;;5.47
61390;BMP280;47260;48.274;19.814;2023-05-10T02:20:40;99634.13;;;5.51
61390;BMP280;47260;48.274;19.814;2023-05-10T02:22:13;99640.44;;;5.54
61390;BMP280;47260;48.274;19.814;2023-05-10T02:23:46;99625.50;;;5.56
61390;BMP280;47260;48.274;19.814;2023-05-10T02:25:21;99635.56;;;5.61
61390;BMP280;47260;48.274;19.814;2023-05-10T02:26:54;99633.78;;;5.58
61390;BMP280;47260;48.274;19.814;2023-05-10T02:28:28;99627.88;;;5.54
61390;BMP280;47260;48.274;19.814;2023-05-10T02:30:00;99632.47;;;5.54
61390;BMP280;47260;48.274;19.814;2023-05-10T02:31:32;99628.94;;;5.48
61390;BMP280;47260;48.274;19.814;2023-05-10T02:33:05;99626.88;;;5.52
61390;BMP280;47260;48.274;19.814;2023-05-10T02:34:36;99626.72;;;5.55
61390;BMP280;47260;48.274;19.814;2023-05-10T02:36:10;99631.59;;;5.48
61390;BMP280;47260;48.274;19.814;2023-05-10T02:37:44;99632.31;;;5.48
61390;BMP280;47260;48.274;19.814;2023-05-10T02:39:16;99636.31;;;5.44
61390;BMP280;47260;48.274;19.814;2023-05-10T02:40:50;99636.03;;;5.42
61390;BMP280;47260;48.274;19.814;2023-05-10T02:42:24;99632.19;;;5.34
61390;BMP280;47260;48.274;19.814;2023-05-10T02:43:59;99630.41;;;5.31
61390;BMP280;47260;48.274;19.814;2023-05-10T02:45:34;99635.31;;;5.32
61390;BMP280;47260;48.274;19.814;2023-05-10T02:47:09;99639.13;;;5.31
61390;BMP280;47260;48.274;19.814;2023-05-10T02:48:41;99640.47;;;5.27
61390;BMP280;47260;48.274;19.814;2023-05-10T02:50:13;99631.44;;;5.15
61390;BMP280;47260;48.274;19.814;2023-05-10T02:51:51;99630.53;;;5.09
61390;BMP280;47260;48.274;19.814;2023-05-10T02:53:31;99637.47;;;5.07
61390;BMP280;47260;48.274;19.814;2023-05-10T02:55:05;99641.03;;;5.04
61390;BMP280;47260;48.274;19.814;2023-05-10T02:56:42;99626.25;;;5.03
61390;BMP280;47260;48.274;19.814;2023-05-10T02:58:13;99638.22;;;5.07
61390;BMP280;47260;48.274;19.814;2023-05-10T02:59:45;99630.09;;;5.11
61390;BMP280;47260;48.274;19.814;2023-05-10T03:01:16;99636.03;;;5.15
61390;BMP280;47260;48.274;19.814;2023-05-10T03:02:48;99644.31;;;5.17
61390;BMP280;47260;48.274;19.814;2023-05-10T03:04:20;99640.47;;;5.18
61390;BMP280;47260;48.274;19.814;2023-05-10T03:05:52;99643.72;;;5.22
61390;BMP280;47260;48.274;19.814;2023-05-10T03:07:27;99640.78;;;5.20
61390;BMP280;47260;48.274;19.814;2023-05-10T03:09:01;99645.19;;;5.23
61390;BMP280;47260;48.274;19.814;2023-05-10T03:10:40;99646.81;;;5.29
61390;BMP280;47260;48.274;19.814;2023-05-10T03:12:18;99647.41;;;5.33
61390;BMP280;47260;48.274;19.814;2023-05-10T03:14:07;99645.63;;;5.39
61390;BMP280;47260;48.274;19.814;2023-05-10T03:15:48;99649.50;;;5.38
61390;BMP280;47260;48.274;19.814;2023-05-10T03:17:29;99640.03;;;5.46
61390;BMP280;47260;48.274;19.814;2023-05-10T03:19:07;99641.81;;;5.49
61390;BMP280;47260;48.274;19.814;2023-05-10T03:20:42;99651.88;;;5.45
61390;BMP280;47260;48.274;19.814;2023-05-10T03:22:21;99647.56;;;5.39
61390;BMP280;47260;48.274;19.814;2023-05-10T03:23:59;99651.69;;;5.31
61390;BMP280;47260;48.274;19.814;2023-05-10T03:25:31;99658.22;;;5.30
61390;BMP280;47260;48.274;19.814;2023-05-10T03:27:05;99654.97;;;5.35
61390;BMP280;47260;48.274;19.814;2023-05-10T03:28:39;99649.78;;;5.40
61390;BMP280;47260;48.274;19.814;2023-05-10T03:30:12;99646.38;;;5.40
61390;BMP280;47260;48.274;19.814;2023-05-10T03:31:44;99642.97;;;5.48
61390;BMP280;47260;48.274;19.814;2023-05-10T03:33:15;99644.59;;;5.55
61390;BMP280;47260;48.274;19.814;2023-05-10T03:34:50;99645.47;;;5.61
61390;BMP280;47260;48.274;19.814;2023-05-10T03:36:20;99644.47;;;5.68
61390;BMP280;47260;48.274;19.814;2023-05-10T03:37:52;99640.59;;;5.78
61390;BMP280;47260;48.274;19.814;2023-05-10T03:39:26;99643.22;;;5.87
61390;BMP280;47260;48.274;19.814;2023-05-10T03:41:01;99635.97;;;5.96
61390;BMP280;47260;48.274;19.814;2023-05-10T03:42:33;99636.53;;;6.09
61390;BMP280;47260;48.274;19.814;2023-05-10T03:44:04;99641.81;;;6.18
61390;BMP280;47260;48.274;19.814;2023-05-10T03:45:36;99638.81;;;6.34
61390;BMP280;47260;48.274;19.814;2023-05-10T03:47:07;99638.41;;;6.60
61390;BMP280;47260;48.274;19.814;2023-05-10T03:48:39;99640.41;;;6.74
61390;BMP280;47260;48.274;19.814;2023-05-10T03:50:11;99649.38;;;7.09
61390;BMP280;47260;48.274;19.814;2023-05-10T03:51:42;99653.41;;;7.43
61390;BMP280;47260;48.274;19.814;2023-05-10T03:53:14;99648.16;;;7.34
61390;BMP280;47260;48.274;19.814;2023-05-10T03:54:46;99640.25;;;7.54
61390;BMP280;47260;48.274;19.814;2023-05-10T03:56:18;99646.72;;;7.91
61390;BMP280;47260;48.274;19.814;2023-05-10T03:57:51;99646.06;;;8.10
61390;BMP280;47260;48.274;19.814;2023-05-10T03:59:25;99647.09;;;8.13
61390;BMP280;47260;48.274;19.814;2023-05-10T04:00:57;99650.28;;;8.17
61390;BMP280;47260;48.274;19.814;2023-05-10T04:02:29;99650.56;;;8.19
61390;BMP280;47260;48.274;19.814;2023-05-10T04:04:00;99655.75;;;8.23
61390;BMP280;47260;48.274;19.814;2023-05-10T04:05:35;99652.88;;;8.11
61390;BMP280;47260;48.274;19.814;2023-05-10T04:07:07;99649.09;;;8.18
61390;BMP280;47260;48.274;19.814;2023-05-10T04:08:40;99654.31;;;8.27
61390;BMP280;47260;48.274;19.814;2023-05-10T04:10:12;99652.66;;;8.30
61390;BMP280;47260;48.274;19.814;2023-05-10T04:11:44;99656.88;;;8.36
61390;BMP280;47260;48.274;19.814;2023-05-10T04:13:16;99659.03;;;8.32
61390;BMP280;47260;48.274;19.814;2023-05-10T04:14:48;99659.78;;;8.33
61390;BMP280;47260;48.274;19.814;2023-05-10T04:16:20;99666.22;;;8.26
61390;BMP280;47260;48.274;19.814;2023-05-10T04:17:52;99658.13;;;8.35
61390;BMP280;47260;48.274;19.814;2023-05-10T04:19:24;99662.31;;;8.42
61390;BMP280;47260;48.274;19.814;2023-05-10T04:20:55;99661.06;;;8.57
61390;BMP280;47260;48.274;19.814;2023-05-10T04:22:26;99663.72;;;8.72
61390;BMP280;47260;48.274;19.814;2023-05-10T04:23:59;99656.81;;;8.85
61390;BMP280;47260;48.274;19.814;2023-05-10T04:25:33;99664.19;;;8.90
61390;BMP280;47260;48.274;19.814;2023-05-10T04:27:05;99667.97;;;9.04
61390;BMP280;47260;48.274;19.814;2023-05-10T04:28:37;99659.63;;;9.17
61390;BMP280;47260;48.274;19.814;2023-05-10T04:30:09;99667.56;;;9.31
61390;BMP280;47260;48.274;19.814;2023-05-10T04:31:41;99669.38;;;9.40
61390;BMP280;47260;48.274;19.814;2023-05-10T04:33:12;99672.94;;;9.57
61390;BMP280;47260;48.274;19.814;2023-05-10T04:34:44;99663.19;;;9.59
61390;BMP280;47260;48.274;19.814;2023-05-10T04:36:15;99666.53;;;10.06
61390;BMP280;47260;48.274;19.814;2023-05-10T04:37:47;99671.50;;;10.24
61390;BMP280;47260;48.274;19.814;2023-05-10T04:39:19;99672.34;;;10.41
61390;BMP280;47260;48.274;19.814;2023-05-10T04:40:52;99662.84;;;10.93
61390;BMP280;47260;48.274;19.814;2023-05-10T04:42:24;99670.28;;;11.53
61390;BMP280;47260;48.274;19.814;2023-05-10T04:43:56;99667.84;;;12.05
61390;BMP280;47260;48.274;19.814;2023-05-10T04:45:28;99673.91;;;12.28
61390;BMP280;47260;48.274;19.814;2023-05-10T04:47:00;99674.75;;;12.69
61390;BMP280;47260;48.274;19.814;2023-05-10T04:48:32;99678.59;;;12.90
61390;BMP280;47260;48.274;19.814;2023-05-10T04:50:05;99671.41;;;12.98
61390;BMP280;47260;48.274;19.814;2023-05-10T04:51:37;99675.13;;;12.95
61390;BMP280;47260;48.274;19.814;2023-05-10T04:53:09;99671.72;;;13.30
61390;BMP280;47260;48.274;19.814;2023-05-10T04:54:41;99675.66;;;12.88
61390;BMP280;47260;48.274;19.814;2023-05-10T04:56:14;99667.31;;;12.86
61390;BMP280;47260;48.274;19.814;2023-05-10T04:57:45;99670.00;;;12.86
61390;BMP280;47260;48.274;19.814;2023-05-10T04:59:17;99671.06;;;12.66
61390;BMP280;47260;48.274;19.814;2023-05-10T05:00:48;99671.84;;;12.56
61390;BMP280;47260;48.274;19.814;2023-05-10T05:02:20;99678.19;;;12.69
61390;BMP280;47260;48.274;19.814;2023-05-10T05:03:52;99678.41;;;12.77
61390;BMP280;47260;48.274;19.814;2023-05-10T05:05:24;99677.84;;;12.84
61390;BMP280;47260;48.274;19.814;2023-05-10T05:06:56;99678.69;;;12.68
61390;BMP280;47260;48.274;19.814;2023-05-10T05:08:27;99670.31;;;12.71
61390;BMP280;47260;48.274;19.814;2023-05-10T05:09:58;99679.31;;;12.85
61390;BMP280;47260;48.274;19.814;2023-05-10T05:11:31;99674.09;;;13.04
61390;BMP280;47260;48.274;19.814;2023-05-10T05:13:03;99681.63;;;13.16
61390;BMP280;47260;48.274;19.814;2023-05-10T05:14:35;99676.81;;;13.33
61390;BMP280;47260;48.274;19.814;2023-05-10T05:16:07;99681.53;;;13.27
61390;BMP280;47260;48.274;19.814;2023-05-10T05:17:39;99678.47;;;13.07
61390;BMP280;47260;48.274;19.814;2023-05-10T05:19:11;99668.22;;;13.00
61390;BMP280;47260;48.274;19.814;2023-05-10T05:20:43;99681.31;;;13.25
61390;BMP280;47260;48.274;19.814;2023-05-10T05:22:14;99683.31;;;13.19
61390;BMP280;47260;48.274;19.814;2023-05-10T05:23:46;99684.03;;;13.20
61390;BMP280;47260;48.274;19.814;2023-05-10T05:25:18;99678.69;;;12.68
61390;BMP280;47260;48.274;19.814;2023-05-10T05:26:52;99674.06;;;12.52
61390;BMP280;47260;48.274;19.814;2023-05-10T05:28:23;99675.78;;;12.44
61390;BMP280;47260;48.274;19.814;2023-05-10T05:29:56;99672.66;;;12.34
61390;BMP280;47260;48.274;19.814;2023-05-10T05:31:28;99669.41;;;12.58
61390;BMP280;47260;48.274;19.814;2023-05-10T05:33:00;99678.50;;;12.44
61390;BMP280;47260;48.274;19.814;2023-05-10T05:34:31;99668.69;;;12.46
61390;BMP280;47260;48.274;19.814;2023-05-10T05:36:05;99676.41;;;12.83
61390;BMP280;47260;48.274;19.814;2023-05-10T05:37:37;99678.91;;;12.64
61390;BMP280;47260;48.274;19.814;2023-05-10T05:39:09;99677.06;;;12.95
61390;BMP280;47260;48.274;19.814;2023-05-10T05:40:40;99683.22;;;12.95
61390;BMP280;47260;48.274;19.814;2023-05-10T05:42:14;99679.09;;;13.24
61390;BMP280;47260;48.274;19.814;2023-05-10T05:43:47;99681.22;;;12.96
61390;BMP280;47260;48.274;19.814;2023-05-10T05:45:18;99684.44;;;13.94
61390;BMP280;47260;48.274;19.814;2023-05-10T05:46:51;99680.16;;;14.04
61390;BMP280;47260;48.274;19.814;2023-05-10T05:48:23;99689.16;;;14.12
61390;BMP280;47260;48.274;19.814;2023-05-10T05:49:55;99675.28;;;13.08
61390;BMP280;47260;48.274;19.814;2023-05-10T05:51:27;99682.34;;;12.70
61390;BMP280;47260;48.274;19.814;2023-05-10T05:52:58;99681.41;;;12.51
61390;BMP280;47260;48.274;19.814;2023-05-10T05:54:31;99680.88;;;12.58
61390;BMP280;47260;48.274;19.814;2023-05-10T05:56:03;99677.25;;;12.56
61390;BMP280;47260;48.274;19.814;2023-05-10T05:57:36;99679.69;;;12.54
61390;BMP280;47260;48.274;19.814;2023-05-10T05:59:08;99686.63;;;12.11
61390;BMP280;47260;48.274;19.814;2023-05-10T06:00:40;99686.19;;;11.90
61390;BMP280;47260;48.274;19.814;2023-05-10T06:02:12;99683.97;;;12.05
61390;BMP280;47260;48.274;19.814;2023-05-10T06:03:44;99682.22;;;12.19
61390;BMP280;47260;48.274;19.814;2023-05-10T06:05:16;99682.66;;;12.45
61390;BMP280;47260;48.274;19.814;2023-05-10T06:06:48;99690.44;;;12.65
61390;BMP280;47260;48.274;19.814;2023-05-10T06:08:19;99680.16;;;12.63
61390;BMP280;47260;48.274;19.814;2023-05-10T06:09:51;99675.78;;;12.55
61390;BMP280;47260;48.274;19.814;2023-05-10T06:11:23;99689.34;;;12.22
61390;BMP280;47260;48.274;19.814;2023-05-10T06:12:57;99693.75;;;12.03
61390;BMP280;47260;48.274;19.814;2023-05-10T06:14:29;99689.00;;;12.53
61390;BMP280;47260;48.274;19.814;2023-05-10T06:16:00;99687.91;;;12.83
61390;BMP280;47260;48.274;19.814;2023-05-10T06:17:32;99687.78;;;13.06
61390;BMP280;47260;48.274;19.814;2023-05-10T06:19:04;99692.75;;;12.96
61390;BMP280;47260;48.274;19.814;2023-05-10T06:20:36;99690.38;;;12.81
61390;BMP280;47260;48.274;19.814;2023-05-10T06:22:08;99689.94;;;12.61
61390;BMP280;47260;48.274;19.814;2023-05-10T06:23:40;99681.38;;;12.68
61390;BMP280;47260;48.274;19.814;2023-05-10T06:25:12;99691.44;;;12.56
61390;BMP280;47260;48.274;19.814;2023-05-10T06:26:44;99682.78;;;12.01
61390;BMP280;47260;48.274;19.814;2023-05-10T06:28:17;99686.19;;;11.90
61390;BMP280;47260;48.274;19.814;2023-05-10T06:29:49;99688.88;;;11.90
61390;BMP280;47260;48.274;19.814;2023-05-10T06:31:21;99694.25;;;11.96
61390;BMP280;47260;48.274;19.814;2023-05-10T06:32:53;99691.81;;;11.98
61390;BMP280;47260;48.274;19.814;2023-05-10T06:34:25;99690.06;;;12.06
61390;BMP280;47260;48.274;19.814;2023-05-10T06:35:57;99690.84;;;11.95
61390;BMP280;47260;48.274;19.814;2023-05-10T06:37:28;99695.97;;;11.99
61390;BMP280;47260;48.274;19.814;2023-05-10T06:39:00;99692.78;;;12.06
61390;BMP280;47260;48.274;19.814;2023-05-10T06:40:32;99699.13;;;12.08
61390;BMP280;47260;48.274;19.814;2023-05-10T06:42:04;99692.53;;;12.04
61390;BMP280;47260;48.274;19.814;2023-05-10T06:43:38;99695.50;;;11.95
61390;BMP280;47260;48.274;19.814;2023-05-10T06:45:12;99693.53;;;11.95
61390;BMP280;47260;48.274;19.814;2023-05-10T06:46:44;99693.53;;;11.78
61390;BMP280;47260;48.274;19.814;2023-05-10T06:48:16;99703.06;;;11.79
61390;BMP280;47260;48.274;19.814;2023-05-10T06:49:48;99692.03;;;11.66
61390;BMP280;47260;48.274;19.814;2023-05-10T06:51:19;99699.41;;;11.71
61390;BMP280;47260;48.274;19.814;2023-05-10T06:52:51;99701.84;;;11.64
61390;BMP280;47260;48.274;19.814;2023-05-10T06:54:23;99700.84;;;11.61
61390;BMP280;47260;48.274;19.814;2023-05-10T06:55:55;99693.25;;;11.49
61390;BMP280;47260;48.274;19.814;2023-05-10T06:57:27;99690.31;;;11.41
61390;BMP280;47260;48.274;19.814;2023-05-10T06:59:00;99693.06;;;11.58
61390;BMP280;47260;48.274;19.814;2023-05-10T07:00:32;99694.00;;;11.60
61390;BMP280;47260;48.274;19.814;2023-05-10T07:02:04;99699.38;;;11.44
61390;BMP280;47260;48.274;19.814;2023-05-10T07:03:36;99689.13;;;11.48
61390;BMP280;47260;48.274;19.814;2023-05-10T07:05:08;99697.69;;;11.57
61390;BMP280;47260;48.274;19.814;2023-05-10T07:06:40;99692.78;;;11.67
61390;BMP280;47260;48.274;19.814;2023-05-10T07:08:12;99692.28;;;11.68
61390;BMP280;47260;48.274;19.814;2023-05-10T07:09:45;99693.03;;;11.74
61390;BMP280;47260;48.274;19.814;2023-05-10T07:11:17;99691.81;;;11.64
61390;BMP280;47260;48.274;19.814;2023-05-10T07:12:49;99693.53;;;11.62
61390;BMP280;47260;48.274;19.814;2023-05-10T07:14:22;99683.97;;;11.61
61390;BMP280;47260;48.274;19.814;2023-05-10T07:15:54;99690.09;;;11.61
61390;BMP280;47260;48.274;19.814;2023-05-10T07:17:26;99688.88;;;11.62
61390;BMP280;47260;48.274;19.814;2023-05-10T07:18:57;99691.81;;;11.64
61390;BMP280;47260;48.274;19.814;2023-05-10T07:20:29;99690.59;;;11.71
61390;BMP280;47260;48.274;19.814;2023-05-10T07:22:01;99691.34;;;11.77
61390;BMP280;47260;48.274;19.814;2023-05-10T07:23:33;99684.72;;;11.67
61390;BMP280;47260;48.274;19.814;2023-05-10T07:25:06;99696.22;;;11.67
61390;BMP280;47260;48.274;19.814;2023-05-10T07:26:37;99696.00;;;11.65
61390;BMP280;47260;48.274;19.814;2023-05-10T07:28:09;99685.22;;;11.76
61390;BMP280;47260;48.274;19.814;2023-05-10T07:29:42;99690.63;;;11.88
61390;BMP280;47260;48.274;19.814;2023-05-10T07:31:14;99693.53;;;11.95
61390;BMP280;47260;48.274;19.814;2023-05-10T07:32:46;99689.63;;;12.02
61390;BMP280;47260;48.274;19.814;2023-05-10T07:34:18;99685.69;;;12.08
61390;BMP280;47260;48.274;19.814;2023-05-10T07:35:50;99688.88;;;12.07
61390;BMP280;47260;48.274;19.814;2023-05-10T07:37:22;99687.13;;;12.04
61390;BMP280;47260;48.274;19.814;2023-05-10T07:38:53;99692.25;;;12.24
61390;BMP280;47260;48.274;19.814;2023-05-10T07:40:27;99691.03;;;12.25
61390;BMP280;47260;48.274;19.814;2023-05-10T07:41:59;99692.94;;;12.41
61390;BMP280;47260;48.274;19.814;2023-05-10T07:43:31;99695.16;;;12.37
61390;BMP280;47260;48.274;19.814;2023-05-10T07:45:05;99692.91;;;12.52
61390;BMP280;47260;48.274;19.814;2023-05-10T07:46:37;99687.19;;;12.77
61390;BMP280;47260;48.274;19.814;2023-05-10T07:48:09;99688.28;;;13.04
61390;BMP280;47260;48.274;19.814;2023-05-10T07:49:41;99690.38;;;13.28
61390;BMP280;47260;48.274;19.814;2023-05-10T07:51:13;99694.84;;;13.49
61390;BMP280;47260;48.274;19.814;2023-05-10T07:52:45;99687.38;;;13.66
61390;BMP280;47260;48.274;19.814;2023-05-10T07:54:17;99690.41;;;13.57
61390;BMP280;47260;48.274;19.814;2023-05-10T07:55:50;99685.09;;;13.46
61390;BMP280;47260;48.274;19.814;2023-05-10T07:57:22;99686.59;;;13.71
61390;BMP280;47260;48.274;19.814;2023-05-10T07:58:54;99681.91;;;13.77
61390;BMP280;47260;48.274;19.814;2023-05-10T08:00:27;99685.22;;;13.59
61390;BMP280;47260;48.274;19.814;2023-05-10T08:01:59;99680.88;;;13.51
61390;BMP280;47260;48.274;19.814;2023-05-10T08:03:31;99680.78;;;13.32
61390;BMP280;47260;48.274;19.814;2023-05-10T08:05:03;99690.69;;;13.13
61390;BMP280;47260;48.274;19.814;2023-05-10T08:06:36;99689.03;;;12.99
61390;BMP280;47260;48.274;19.814;2023-05-10T08:08:08;99696.34;;;13.15
61390;BMP280;47260;48.274;19.814;2023-05-10T08:09:39;99687.94;;;13.19
61390;BMP280;47260;48.274;19.814;2023-05-10T08:11:11;99692.53;;;13.35
61390;BMP280;47260;48.274;19.814;2023-05-10T08:12:43;99693.84;;;13.23
61390;BMP280;47260;48.274;19.814;2023-05-10T08:14:15;99693.44;;;13.08
61390;BMP280;47260;48.274;19.814;2023-05-10T08:15:48;99696.47;;;13.28
61390;BMP280;47260;48.274;19.814;2023-05-10T08:17:23;99688.34;;;13.34
61390;BMP280;47260;48.274;19.814;2023-05-10T08:18:55;99693.09;;;13.17
61390;BMP280;47260;48.274;19.814;2023-05-10T08:20:27;99692.28;;;13.33
61390;BMP280;47260;48.274;19.814;2023-05-10T08:21:58;99703.66;;;13.20
61390;BMP280;47260;48.274;19.814;2023-05-10T08:23:30;99698.41;;;13.33
61390;BMP280;47260;48.274;19.814;2023-05-10T08:25:03;99689.03;;;13.45
61390;BMP280;47260;48.274;19.814;2023-05-10T08:26:34;99693.69;;;13.45
61390;BMP280;47260;48.274;19.814;2023-05-10T08:28:06;99700.66;;;13.64
61390;BMP280;47260;48.274;19.814;2023-05-10T08:29:38;99694.16;;;13.43
61390;BMP280;47260;48.274;19.814;2023-05-10T08:31:11;99689.25;;;13.47
61390;BMP280;47260;48.274;19.814;2023-05-10T08:32:43;99687.09;;;13.40
61390;BMP280;47260;48.274;19.814;2023-05-10T08:34:15;99691.63;;;13.56
61390;BMP280;47260;48.274;19.814;2023-05-10T08:35:47;99688.91;;;13.56
61390;BMP280;47260;48.274;19.814;2023-05-10T08:37:19;99688.00;;;13.48
61390;BMP280;47260;48.274;19.814;2023-05-10T08:38:51;99690.47;;;13.76
61390;BMP280;47260;48.274;19.814;2023-05-10T08:40:24;99703.84;;;13.93
61390;BMP280;47260;48.274;19.814;2023-05-10T08:42:00;99697.03;;;13.80
61390;BMP280;47260;48.274;19.814;2023-05-10T08:43:35;99694.03;;;13.65
61390;BMP280;47260;48.274;19.814;2023-05-10T08:45:08;99689.50;;;13.73
61390;BMP280;47260;48.274;19.814;2023-05-10T08:46:46;99692.53;;;13.64
61390;BMP280;47260;48.274;19.814;2023-05-10T08:48:18;99691.22;;;13.76
61390;BMP280;47260;48.274;19.814;2023-05-10T08:49:50;99690.00;;;14.02
61390;BMP280;47260;48.274;19.814;2023-05-10T08:51:24;99690.78;;;14.21
61390;BMP280;47260;48.274;19.814;2023-05-10T08:53:00;99689.75;;;14.24
61390;BMP280;47260;48.274;19.814;2023-05-10T08:54:32;99700.25;;;14.09